Time;durP1;ratioP1;P1;durP2;ratioP2;P2;SDS_P1;SDS_P2;PMS_P1;PMS_P2;Temp;Humidity;BMP_temperature;BMP_pressure;BME280_temperature;BME280_humidity;BME280_pressure;Samples;Min_cycle;Max_cycle;Signal;HPM_P1;HPM_P2
2023/02/05 00:01:28;;;;;;;80.70;7.53;;;;;;;1.49;76.50;101223.45;1926257;74;21552;-55
2023/02/05 00:03:57;;;;;;;35.60;6.22;;;;;;;1.50;76.62;101216.11;1927993;74;21097;-55
2023/02/05 00:06:26;;;;;;;110.12;10.08;;;;;;;1.56;76.47;101215.72;1927291;74;21138;-56
2023/02/05 00:08:56;;;;;;;33.48;7.75;;;;;;;1.58;76.25;101215.30;1927834;74;21180;-56
2023/02/05 00:11:25;;;;;;;35.50;6.70;;;;;;;1.60;76.24;101212.27;1927903;74;21121;-55
2023/02/05 00:13:54;;;;;;;91.40;11.35;;;;;;;1.63;76.13;101205.81;1925377;74;21023;-56
2023/02/05 00:16:25;;;;;;;35.15;8.30;;;;;;;1.64;76.03;101204.94;1910126;74;21358;-55
2023/02/05 00:18:54;;;;;;;21.93;6.78;;;;;;;1.64;76.08;101203.63;1895057;74;21435;-55
2023/02/05 00:21:24;;;;;;;28.75;10.13;;;;;;;1.65;76.00;101206.24;1894662;76;21684;-55
2023/02/05 00:23:53;;;;;;;32.00;9.53;;;;;;;1.67;75.92;101203.22;1917613;73;21567;-55
2023/02/05 00:26:22;;;;;;;38.67;9.35;;;;;;;1.68;75.83;101208.87;1927541;73;21176;-56
2023/02/05 00:28:50;;;;;;;37.45;7.92;;;;;;;1.65;75.83;101205.38;1917398;74;21023;-52
2023/02/05 00:31:21;;;;;;;23.10;8.78;;;;;;;1.65;75.80;101204.09;1912052;74;21136;-58
2023/02/05 00:33:51;;;;;;;40.78;10.15;;;;;;;1.63;75.86;101196.72;1891641;75;21839;-57
2023/02/05 00:36:22;;;;;;;25.70;8.78;;;;;;;1.62;75.84;101197.57;1905577;75;21103;-59
2023/02/05 00:38:52;;;;;;;16.90;5.40;;;;;;;1.61;75.82;101201.05;1873786;75;21627;-59
2023/02/05 00:41:20;;;;;;;17.37;6.83;;;;;;;1.61;75.80;101203.64;1882534;75;21577;-48
2023/02/05 00:43:49;;;;;;;19.82;5.85;;;;;;;1.59;75.83;101198.88;1877134;75;21577;-56
2023/02/05 00:46:19;;;;;;;22.50;5.17;;;;;;;1.58;75.87;101197.13;1882627;75;21512;-59
2023/02/05 00:48:47;;;;;;;29.02;6.05;;;;;;;1.60;75.89;101198.00;1876337;75;21165;-61
2023/02/05 00:51:16;;;;;;;22.07;5.15;;;;;;;1.58;75.90;101201.02;1906376;75;21035;-59
2023/02/05 00:53:44;;;;;;;13.53;4.58;;;;;;;1.57;75.88;101199.27;1905633;75;21102;-60
2023/02/05 00:56:13;;;;;;;29.12;5.47;;;;;;;1.56;75.87;101196.25;1905544;75;21032;-59
2023/02/05 00:58:48;;;;;;;92.95;9.05;;;;;;;1.51;76.01;101191.91;1905476;75;21632;-58
2023/02/05 01:01:13;;;;;;;79.35;9.83;;;;;;;1.52;76.01;101193.63;1905252;74;21114;-58
2023/02/05 01:03:42;;;;;;;44.33;10.03;;;;;;;1.48;76.06;101185.39;1905779;75;21447;-56
2023/02/05 01:06:11;;;;;;;34.63;9.53;;;;;;;1.48;76.22;101189.29;1904283;75;21036;-60
2023/02/05 01:08:39;;;;;;;42.23;11.05;;;;;;;1.49;76.35;101191.01;1905458;75;21075;-58
2023/02/05 01:11:10;;;;;;;30.30;9.53;;;;;;;1.52;76.27;101183.69;1905412;75;21137;-60
2023/02/05 01:13:40;;;;;;;42.70;12.75;;;;;;;1.54;76.17;101188.45;1897665;75;21109;-58
2023/02/05 01:16:09;;;;;;;32.85;10.75;;;;;;;1.52;76.10;101191.03;1873405;76;21110;-57
2023/02/05 01:18:38;;;;;;;31.48;11.75;;;;;;;1.54;76.02;101188.02;1890356;75;21036;-58
2023/02/05 01:21:06;;;;;;;35.33;11.68;;;;;;;1.53;76.03;101187.59;1905564;75;21090;-56
2023/02/05 01:23:35;;;;;;;41.08;9.93;;;;;;;1.53;76.00;101181.11;1905560;74;21071;-59
2023/02/05 01:26:03;;;;;;;27.80;8.80;;;;;;;1.53;75.95;101182.41;1893325;75;21057;-56
2023/02/05 01:28:32;;;;;;;26.05;8.33;;;;;;;1.57;75.97;101175.91;1873368;76;21049;-59
2023/02/05 01:31:01;;;;;;;44.63;11.08;;;;;;;1.59;75.95;101172.48;1873277;75;21567;-59
2023/02/05 01:33:30;;;;;;;39.15;10.50;;;;;;;1.61;75.90;101178.98;1888540;75;21079;-59
2023/02/05 01:35:59;;;;;;;47.35;12.25;;;;;;;1.61;75.90;101178.55;1905278;75;21603;-63
2023/02/05 01:38:27;;;;;;;30.35;8.15;;;;;;;1.60;75.89;101174.64;1904233;74;21063;-61
2023/02/05 01:40:58;;;;;;;23.65;7.17;;;;;;;1.62;75.95;101178.10;1898360;75;21649;-63
2023/02/05 01:43:27;;;;;;;34.88;9.53;;;;;;;1.63;75.98;101173.36;1905280;75;21109;-59
2023/02/05 01:46:07;;;;;;;23.00;7.50;;;;;;;1.63;76.10;101180.71;1905494;75;21044;-58
2023/02/05 01:48:41;;;;;;;50.80;8.43;;;;;;;1.62;76.28;101180.26;1908777;74;21070;-59
2023/02/05 01:51:12;;;;;;;26.12;8.60;;;;;;;1.64;76.20;101183.76;1914943;75;21112;-61
2023/02/05 01:53:43;;;;;;;23.75;7.85;;;;;;;1.64;76.21;101183.76;1915025;75;21089;-55
2023/02/05 01:56:15;;;;;;;25.23;8.95;;;;;;;1.63;76.21;101183.31;1884199;75;21080;-52
2023/02/05 01:58:46;;;;;;;40.40;11.48;;;;;;;1.66;76.23;101187.63;1871444;76;21085;-53
2023/02/05 02:01:15;;;;;;;58.92;10.90;;;;;;;1.65;76.21;101192.41;1898432;75;21098;-58
2023/02/05 02:03:44;;;;;;;29.77;11.38;;;;;;;1.63;76.22;101188.94;1905551;75;21032;-57
2023/02/05 02:06:13;;;;;;;39.08;11.75;;;;;;;1.65;76.21;101200.19;1905481;74;21676;-48
2023/02/05 02:08:41;;;;;;;30.52;11.88;;;;;;;1.65;76.23;101198.45;1905505;75;21109;-56
2023/02/05 02:11:12;;;;;;;42.05;14.75;;;;;;;1.61;76.41;101201.05;1905481;75;21043;-51
2023/02/05 02:13:43;;;;;;;36.80;14.15;;;;;;;1.58;76.56;101198.42;1897103;74;21123;-51
2023/02/05 02:16:12;;;;;;;31.15;11.95;;;;;;;1.58;76.52;101201.88;1873399;76;21504;-49
2023/02/05 02:18:42;;;;;;;42.65;12.07;;;;;;;1.58;76.48;101209.66;1873405;76;21128;-50
2023/02/05 02:21:32;;;;;;;19.55;8.43;;;;;;;1.58;76.36;101208.80;1873288;76;21045;-48
2023/02/05 02:24:09;;;;;;;39.03;10.53;;;;;;;1.57;76.29;101213.14;1876491;75;21154;-59
2023/02/05 02:26:56;;;;;;;29.20;9.88;;;;;;;1.54;76.21;101204.02;1887425;75;21043;-59
2023/02/05 02:29:44;;;;;;;24.60;9.18;;;;;;;1.53;76.19;101204.88;1890504;75;21158;-58
2023/02/05 02:32:18;;;;;;;43.75;12.03;;;;;;;1.53;76.21;101207.06;1816570;77;21171;-57
2023/02/05 02:34:53;;;;;;;22.85;9.10;;;;;;;1.57;76.22;101209.65;1909504;75;21243;-56
2023/02/05 02:37:27;;;;;;;20.30;8.08;;;;;;;1.56;76.26;101204.89;1917965;74;21059;-58
2023/02/05 02:39:59;;;;;;;22.17;9.43;;;;;;;1.51;76.30;101205.30;1917504;74;21043;-57
2023/02/05 02:42:49;;;;;;;24.57;8.50;;;;;;;1.48;76.37;101202.27;1916342;75;21145;-56
2023/02/05 02:45:20;;;;;;;33.30;9.30;;;;;;;1.46;76.49;101203.98;1898874;75;21070;-57
2023/02/05 02:47:54;;;;;;;28.27;9.38;;;;;;;1.48;76.43;101207.45;1898325;75;21581;-58
2023/02/05 02:50:33;;;;;;;24.00;9.45;;;;;;;1.49;76.38;101207.02;1899410;75;21168;-53
2023/02/05 02:53:05;;;;;;;29.75;9.80;;;;;;;1.53;76.30;101207.47;1897186;75;21411;-57
2023/02/05 02:55:36;;;;;;;19.00;7.60;;;;;;;1.56;76.27;101202.74;1872595;73;21182;-58
2023/02/05 02:58:08;;;;;;;19.87;8.25;;;;;;;1.58;76.24;101205.77;1825053;77;21070;-57
2023/02/05 03:00:39;;;;;;;18.77;7.53;;;;;;;1.54;76.30;101203.59;1901540;75;21114;-57
2023/02/05 03:03:11;;;;;;;14.07;6.83;;;;;;;1.52;76.35;101200.12;1905818;75;21188;-48
2023/02/05 03:05:42;;;;;;;19.10;7.67;;;;;;;1.49;76.43;101210.47;1897816;75;21071;-54
2023/02/05 03:08:14;;;;;;;17.60;6.87;;;;;;;1.45;76.49;101202.67;1898057;75;21102;-57
2023/02/05 03:10:45;;;;;;;18.10;5.72;;;;;;;1.44;76.54;101200.52;1826303;77;21294;-57
2023/02/05 03:13:15;;;;;;;14.15;6.25;;;;;;;1.47;76.51;101200.95;1911215;75;21012;-55
2023/02/05 03:15:46;;;;;;;10.40;5.30;;;;;;;1.45;76.58;101198.34;1895715;75;21136;-49
2023/02/05 03:18:17;;;;;;;12.63;5.00;;;;;;;1.43;76.66;101198.77;1900710;75;21129;-59
2023/02/05 03:20:52;;;;;;;11.38;3.67;;;;;;;1.40;76.71;101194.84;1888433;75;21107;-58
2023/02/05 03:23:21;;;;;;;14.75;5.67;;;;;;;1.40;76.69;101194.84;1899057;75;21047;-59
2023/02/05 03:25:49;;;;;;;13.75;5.72;;;;;;;1.40;76.67;101189.66;1905209;75;21109;-58
2023/02/05 03:28:20;;;;;;;14.13;5.33;;;;;;;1.42;76.63;101191.86;1907481;74;21141;-58
2023/02/05 03:30:55;;;;;;;11.22;4.80;;;;;;;1.45;76.57;101193.16;1886405;75;21130;-59
2023/02/05 03:33:46;;;;;;;15.40;5.85;;;;;;;1.45;76.57;101193.59;1891170;75;21157;-58
2023/02/05 03:36:44;;;;;;;11.40;4.28;;;;;;;1.42;76.63;101191.86;1895041;75;21247;-59
2023/02/05 03:39:31;;;;;;;10.05;4.45;;;;;;;1.39;76.68;101190.97;1875428;74;21186;-59
2023/02/05 03:42:06;;;;;;;10.88;5.33;;;;;;;1.37;76.68;101193.55;1898517;73;21075;-51
2023/02/05 03:44:39;;;;;;;11.05;4.80;;;;;;;1.35;76.73;101185.75;1894274;75;21239;-52
2023/02/05 03:47:12;;;;;;;13.60;5.03;;;;;;;1.37;76.74;101188.80;1889578;75;21515;-49
2023/02/05 03:49:55;;;;;;;18.95;7.17;;;;;;;1.37;76.69;101182.31;1902671;74;21051;-49
2023/02/05 03:52:29;;;;;;;17.37;6.92;;;;;;;1.36;76.72;101182.72;1860791;75;21043;-49
2023/02/05 03:55:10;;;;;;;19.67;8.05;;;;;;;1.38;76.73;101186.19;1878721;75;21082;-48
2023/02/05 03:57:43;;;;;;;16.30;6.80;;;;;;;1.39;76.71;101190.97;1911190;75;21063;-50
2023/02/05 04:00:14;;;;;;;18.92;8.48;;;;;;;1.42;76.66;101193.16;1915574;74;21300;-48
2023/02/05 04:02:44;;;;;;;14.93;6.87;;;;;;;1.43;76.67;101194.02;1918533;74;21036;-51
2023/02/05 04:05:14;;;;;;;11.30;5.17;;;;;;;1.45;76.65;101199.64;1892394;75;21062;-54
2023/02/05 04:07:43;;;;;;;12.90;5.65;;;;;;;1.50;76.58;101205.73;1879242;75;21071;-59
2023/02/05 04:10:14;;;;;;;18.23;8.35;;;;;;;1.46;76.65;101203.98;1919208;74;21498;-55
2023/02/05 04:12:42;;;;;;;25.00;9.00;;;;;;;1.46;76.76;101203.98;1917664;75;21094;-57
2023/02/05 04:15:11;;;;;;;25.20;10.08;;;;;;;1.48;76.71;101202.27;1917609;75;21059;-55
2023/02/05 04:17:42;;;;;;;20.95;9.80;;;;;;;1.52;76.66;101196.22;1914459;74;21165;-55
2023/02/05 04:20:11;;;;;;;34.75;15.20;;;;;;;1.53;76.61;101201.87;1905555;75;21047;-56
2023/02/05 04:22:40;;;;;;;31.12;12.33;;;;;;;1.52;76.65;101193.63;1899563;75;21067;-56
2023/02/05 04:25:09;;;;;;;19.90;9.00;;;;;;;1.53;76.60;101193.19;1902831;75;21138;-55
2023/02/05 04:27:39;;;;;;;32.00;14.93;;;;;;;1.54;76.57;101191.91;1892942;74;21458;-51
2023/02/05 04:30:08;;;;;;;27.50;12.45;;;;;;;1.53;76.61;101195.38;1886701;75;21078;-52
2023/02/05 04:32:38;;;;;;;24.05;9.70;;;;;;;1.54;76.61;101191.91;1912584;75;21063;-55
2023/02/05 04:35:11;;;;;;;29.90;11.18;;;;;;;1.50;76.73;101199.24;1926695;74;21110;-56
2023/02/05 04:37:39;;;;;;;20.72;9.70;;;;;;;1.49;76.77;101194.90;1904041;74;21125;-54
2023/02/05 04:40:11;;;;;;;33.98;12.90;;;;;;;1.51;76.78;101198.80;1904068;74;21042;-55
2023/02/05 04:42:40;;;;;;;20.85;10.23;;;;;;;1.50;76.86;101190.60;1903778;74;21492;-55
2023/02/05 04:45:09;;;;;;;26.48;11.55;;;;;;;1.52;76.85;101197.52;1923250;74;21055;-55
2023/02/05 04:47:38;;;;;;;23.15;8.83;;;;;;;1.53;76.86;101190.19;1918069;74;21063;-55
2023/02/05 04:50:07;;;;;;;25.10;11.43;;;;;;;1.55;76.86;101188.91;1903913;74;21074;-56
2023/02/05 04:52:36;;;;;;;17.10;7.67;;;;;;;1.57;76.85;101192.78;1931684;74;21051;-55
2023/02/05 04:55:05;;;;;;;20.52;8.38;;;;;;;1.57;76.84;101185.88;1901875;75;21018;-55
2023/02/05 04:57:33;;;;;;;27.22;9.65;;;;;;;1.57;76.87;101188.89;1904536;74;21022;-55
2023/02/05 05:00:03;;;;;;;37.23;11.48;;;;;;;1.57;76.92;101191.48;1918474;74;21015;-58
2023/02/05 05:02:32;;;;;;;32.93;10.32;;;;;;;1.54;77.07;101193.64;1912539;74;21065;-57
2023/02/05 05:05:01;;;;;;;39.20;14.45;;;;;;;1.52;77.19;101194.06;1929687;74;21483;-57
2023/02/05 05:07:32;;;;;;;37.08;12.05;;;;;;;1.50;77.22;101199.24;1902107;74;21100;-58
2023/02/05 05:10:01;;;;;;;31.95;11.75;;;;;;;1.52;77.29;101196.66;1927208;73;21131;-56
2023/02/05 05:12:29;;;;;;;15.20;8.43;;;;;;;1.53;77.34;101203.17;1933384;74;21106;-58
2023/02/05 05:14:58;;;;;;;19.15;9.83;;;;;;;1.52;77.47;101202.72;1935065;74;21121;-55
2023/02/05 05:17:26;;;;;;;26.15;11.10;;;;;;;1.52;77.46;101194.92;1911106;74;21054;-57
2023/02/05 05:19:55;;;;;;;33.15;13.08;;;;;;;1.53;77.46;101204.47;1925590;74;21109;-57
2023/02/05 05:22:24;;;;;;;20.02;9.03;;;;;;;1.54;77.53;101203.59;1911441;74;21132;-47
2023/02/05 05:24:55;;;;;;;27.52;11.88;;;;;;;1.51;77.57;101204.89;1902128;74;21116;-48
2023/02/05 05:27:24;;;;;;;14.07;6.45;;;;;;;1.51;77.61;101206.19;1901688;75;21014;-51
2023/02/05 05:29:54;;;;;;;10.08;5.78;;;;;;;1.51;77.63;101206.19;1931864;74;21104;-48
2023/02/05 05:32:23;;;;;;;18.42;6.90;;;;;;;1.52;77.64;101208.34;1928996;74;21120;-48
2023/02/05 05:34:51;;;;;;;22.10;8.53;;;;;;;1.51;77.64;101217.86;1892640;74;21091;-50
2023/02/05 05:37:20;;;;;;;15.40;5.90;;;;;;;1.52;77.67;101216.13;1879311;75;21640;-49
2023/02/05 05:45:21;;;;;;;12.63;4.90;;;;;;;1.45;77.92;101229.92;1915550;75;21020;-58
2023/02/05 05:47:50;;;;;;;19.17;7.53;;;;;;;1.42;77.94;101232.08;1884044;75;21047;-59
2023/02/05 05:50:19;;;;;;;6.42;3.42;;;;;;;1.41;77.99;101227.73;1896564;75;21064;-58
2023/02/05 05:52:49;;;;;;;12.68;6.35;;;;;;;1.43;77.97;101237.69;1913678;75;21176;-59
2023/02/05 05:55:18;;;;;;;11.53;5.80;;;;;;;1.44;77.95;101237.25;1908318;75;21168;-57
2023/02/05 05:57:47;;;;;;;12.10;5.47;;;;;;;1.45;77.94;101235.11;1915899;75;21132;-58
2023/02/05 06:00:16;;;;;;;13.30;5.08;;;;;;;1.46;77.88;101237.72;1918321;75;21494;-57
2023/02/05 06:02:45;;;;;;;10.53;4.70;;;;;;;1.47;77.91;101235.55;1894548;75;21038;-56
2023/02/05 06:05:13;;;;;;;13.98;5.95;;;;;;;1.45;77.98;101239.86;1886983;75;21051;-58
2023/02/05 06:08:03;;;;;;;20.08;7.30;;;;;;;1.46;78.07;101233.83;1894316;75;21015;-59
2023/02/05 06:10:34;;;;;;;6.22;2.55;;;;;;;1.51;78.03;101240.33;1901290;74;21217;-60
2023/02/05 06:13:02;;;;;;;5.92;3.55;;;;;;;1.50;78.08;101234.72;1905475;74;21121;-58
2023/02/05 06:15:31;;;;;;;13.70;5.08;;;;;;;1.50;78.16;101237.31;1912621;75;21055;-58
2023/02/05 06:17:59;;;;;;;14.78;5.45;;;;;;;1.53;78.16;101244.70;1904532;75;21047;-59
2023/02/05 06:20:28;;;;;;;12.33;5.15;;;;;;;1.58;78.09;101247.73;1910458;75;21568;-59
2023/02/05 06:22:56;;;;;;;18.00;6.90;;;;;;;1.62;78.06;101249.05;1891067;75;21053;-59
2023/02/05 06:25:25;;;;;;;11.05;5.62;;;;;;;1.68;77.99;101244.35;1902613;75;21529;-56
2023/02/05 06:27:54;;;;;;;16.17;6.28;;;;;;;1.76;77.86;101250.87;1906010;75;21067;-54
2023/02/05 06:30:22;;;;;;;17.50;5.95;;;;;;;1.80;77.83;101249.59;1908630;75;21199;-59
2023/02/05 06:32:51;;;;;;;8.65;4.58;;;;;;;1.81;77.78;101253.94;1886121;76;21051;-56
2023/02/05 06:35:20;;;;;;;7.20;2.37;;;;;;;1.81;77.79;101247.45;1898986;74;21197;-57
2023/02/05 06:37:49;;;;;;;7.85;3.40;;;;;;;1.83;77.78;101252.66;1897390;75;21203;-56
2023/02/05 06:40:21;;;;;;;14.53;6.90;;;;;;;1.78;77.86;101249.16;1888455;75;21027;-55
2023/02/05 06:42:48;;;;;;;20.00;7.53;;;;;;;1.76;77.94;101241.80;1912216;75;21110;-55
2023/02/05 06:45:17;;;;;;;9.88;5.10;;;;;;;1.79;77.94;101250.47;1899047;75;21050;-56
2023/02/05 06:47:45;;;;;;;12.50;4.80;;;;;;;1.82;77.91;101247.86;1873654;76;21120;-55
2023/02/05 06:50:14;;;;;;;12.93;6.75;;;;;;;1.81;77.89;101250.45;1873550;76;21019;-53
2023/02/05 06:52:43;;;;;;;15.25;6.65;;;;;;;1.83;77.83;101252.22;1912206;75;21059;-60
2023/02/05 06:55:11;;;;;;;12.13;5.72;;;;;;;1.82;77.85;101255.66;1910571;75;21223;-60
2023/02/05 06:57:40;;;;;;;6.92;3.10;;;;;;;1.87;77.80;101250.50;1902922;75;21521;-58
2023/02/05 07:00:10;;;;;;;11.33;5.70;;;;;;;1.88;77.74;101244.43;1918673;75;21160;-59
2023/02/05 07:02:39;;;;;;;14.93;5.08;;;;;;;1.87;77.72;101248.77;1918886;74;21113;-58
2023/02/05 07:05:08;;;;;;;19.20;6.65;;;;;;;1.82;77.75;101249.16;1916468;75;21031;-60
2023/02/05 07:07:37;;;;;;;22.37;7.20;;;;;;;1.78;77.81;101250.02;1916301;75;21039;-60
2023/02/05 07:10:06;;;;;;;17.70;7.97;;;;;;;1.73;77.84;101247.81;1917469;75;21039;-57
2023/02/05 07:12:34;;;;;;;26.95;7.78;;;;;;;1.73;77.92;101245.22;1887021;75;21439;-55
2023/02/05 07:15:03;;;;;;;13.98;7.42;;;;;;;1.72;77.98;101240.91;1886141;76;21112;-55
2023/02/05 07:17:32;;;;;;;11.60;5.50;;;;;;;1.69;78.03;101244.33;1886245;76;21113;-55
2023/02/05 07:20:00;;;;;;;12.03;6.25;;;;;;;1.71;78.03;101246.95;1888601;75;21027;-56
2023/02/05 07:22:29;;;;;;;13.30;5.17;;;;;;;1.71;78.03;101243.05;1884801;75;21141;-59
2023/02/05 07:24:58;;;;;;;20.23;8.23;;;;;;;1.72;78.00;101245.66;1895023;75;21105;-59
2023/02/05 07:27:26;;;;;;;19.35;7.58;;;;;;;1.71;77.98;101247.80;1916408;75;21039;-59
2023/02/05 07:29:55;;;;;;;18.23;8.55;;;;;;;1.67;78.02;101249.09;1918781;75;21486;-59
2023/02/05 07:32:24;;;;;;;28.12;12.90;;;;;;;1.63;77.98;101248.20;1918700;75;21055;-59
2023/02/05 07:34:52;;;;;;;34.03;12.75;;;;;;;1.61;77.92;101245.17;1918720;75;21035;-58
2023/02/05 07:37:21;;;;;;;36.17;12.10;;;;;;;1.59;77.87;101250.79;1908145;74;21078;-59
2023/02/05 07:39:50;;;;;;;29.37;9.58;;;;;;;1.60;77.91;101248.17;1899673;74;21082;-52
2023/02/05 07:42:18;;;;;;;23.57;8.38;;;;;;;1.59;77.90;101249.49;1892888;74;21069;-48
2023/02/05 07:44:48;;;;;;;20.97;8.95;;;;;;;1.60;77.92;101248.61;1888492;76;21034;-49
2023/02/05 07:47:17;;;;;;;16.57;5.20;;;;;;;1.59;77.96;101248.20;1904191;74;21089;-49
2023/02/05 07:49:46;;;;;;;23.45;8.90;;;;;;;1.61;78.05;101255.55;1928418;74;21043;-48
2023/02/05 07:52:14;;;;;;;21.02;7.35;;;;;;;1.60;78.06;101246.87;1928649;74;21046;-49
2023/02/05 07:54:43;;;;;;;19.82;7.65;;;;;;;1.62;78.08;101250.34;1928815;74;21566;-47
2023/02/05 07:57:11;;;;;;;17.50;6.85;;;;;;;1.65;78.10;101248.22;1923525;74;21059;-49
2023/02/05 07:59:40;;;;;;;23.80;9.63;;;;;;;1.66;78.08;101244.74;1895325;76;21156;-52
2023/02/05 08:02:11;;;;;;;20.17;8.45;;;;;;;1.68;78.02;101245.65;1917028;74;21106;-57
2023/02/05 08:04:39;;;;;;;19.12;6.65;;;;;;;1.68;77.99;101246.95;1909519;74;21058;-58
2023/02/05 08:07:09;;;;;;;16.77;6.25;;;;;;;1.67;77.94;101246.50;1907185;74;21054;-58
2023/02/05 08:09:38;;;;;;;21.45;9.00;;;;;;;1.66;77.92;101243.45;1927882;74;21462;-58
2023/02/05 08:12:06;;;;;;;23.90;7.70;;;;;;;1.66;77.93;101244.74;1919615;74;21031;-59
2023/02/05 08:14:36;;;;;;;28.12;10.78;;;;;;;1.67;77.96;101241.30;1927864;74;21172;-52
2023/02/05 08:17:05;;;;;;;35.68;10.35;;;;;;;1.64;78.07;101240.87;1927946;74;21489;-52
2023/02/05 08:19:34;;;;;;;25.35;10.38;;;;;;;1.63;78.10;101243.02;1911837;74;21062;-52
2023/02/05 08:22:02;;;;;;;28.80;9.05;;;;;;;1.64;78.20;101242.58;1899311;74;20995;-56
2023/02/05 08:24:32;;;;;;;22.35;8.38;;;;;;;1.64;78.16;101243.87;1896771;74;21133;-54
2023/02/05 08:27:00;;;;;;;25.77;9.25;;;;;;;1.66;78.15;101243.45;1894665;76;21548;-56
2023/02/05 08:29:29;;;;;;;20.02;8.43;;;;;;;1.70;78.11;101247.38;1894491;76;21161;-56
2023/02/05 08:31:58;;;;;;;25.02;9.30;;;;;;;1.70;78.11;101243.93;1896755;74;21223;-57
2023/02/05 08:34:27;;;;;;;34.43;13.35;;;;;;;1.72;78.11;101247.39;1894627;76;21166;-56
2023/02/05 08:36:56;;;;;;;33.38;12.63;;;;;;;1.73;78.14;101246.52;1886469;76;21080;-56
2023/02/05 08:39:25;;;;;;;30.20;10.50;;;;;;;1.75;78.18;101248.69;1873296;76;21114;-57
2023/02/05 08:41:54;;;;;;;22.93;9.58;;;;;;;1.77;78.22;101243.10;1875876;75;21551;-56
2023/02/05 08:44:23;;;;;;;18.60;8.23;;;;;;;1.77;78.23;101243.10;1874313;75;21039;-56
2023/02/05 08:46:51;;;;;;;18.07;7.62;;;;;;;1.77;78.24;101241.80;1876647;75;21051;-57
2023/02/05 08:49:20;;;;;;;21.17;8.23;;;;;;;1.76;78.28;101243.95;1880526;75;21109;-57
2023/02/05 08:51:48;;;;;;;29.02;9.68;;;;;;;1.77;78.35;101245.70;1892063;75;21051;-57
2023/02/05 08:54:17;;;;;;;13.28;5.67;;;;;;;1.79;78.35;101238.78;1891990;74;21010;-56
2023/02/05 08:56:47;;;;;;;16.90;7.12;;;;;;;1.82;78.34;101246.56;1891997;76;21038;-56
2023/02/05 08:59:16;;;;;;;21.62;9.55;;;;;;;1.82;78.36;101244.41;1891997;76;21047;-57
2023/02/05 09:01:45;;;;;;;19.20;8.70;;;;;;;1.82;78.42;101247.86;1892102;76;21046;-56
2023/02/05 09:04:16;;;;;;;25.35;9.80;;;;;;;1.86;78.45;101243.16;1892168;76;21535;-57
2023/02/05 09:06:45;;;;;;;20.27;8.90;;;;;;;1.89;78.45;101242.28;1892043;76;21541;-56
2023/02/05 09:09:14;;;;;;;33.55;8.53;;;;;;;1.93;78.51;101238.83;1892154;76;21461;-56
2023/02/05 09:11:45;;;;;;;16.65;6.30;;;;;;;1.99;78.49;101239.29;1892069;75;21054;-56
2023/02/05 09:14:14;;;;;;;25.30;12.10;;;;;;;2.11;78.51;101235.45;1892032;76;21035;-56
2023/02/05 09:16:43;;;;;;;14.98;6.47;;;;;;;2.26;78.48;101239.39;1891873;75;21034;-57
2023/02/05 09:19:12;;;;;;;20.50;6.40;;;;;;;2.44;78.38;101239.02;1891934;76;21125;-56
2023/02/05 09:21:41;;;;;;;33.10;9.63;;;;;;;2.62;78.19;101232.56;1892076;76;21434;-56
2023/02/05 09:24:10;;;;;;;15.38;7.40;;;;;;;2.86;77.94;101223.06;1892072;76;21473;-56
2023/02/05 09:26:38;;;;;;;11.65;4.45;;;;;;;3.15;77.67;101225.62;1891954;76;21035;-56
2023/02/05 09:29:07;;;;;;;14.38;6.90;;;;;;;3.38;77.28;101216.95;1891997;74;20999;-57
2023/02/05 09:31:36;;;;;;;14.25;6.25;;;;;;;3.51;77.06;101224.30;1891905;76;21110;-57
2023/02/05 09:34:04;;;;;;;13.32;6.20;;;;;;;3.58;76.83;101220.78;1892018;76;21014;-56
2023/02/05 09:36:33;;;;;;;8.50;4.42;;;;;;;3.60;76.73;101219.93;1891958;76;21101;-56
2023/02/05 09:39:02;;;;;;;11.70;4.12;;;;;;;3.69;76.73;101217.74;1891944;75;21580;-56
2023/02/05 09:41:35;;;;;;;16.50;6.58;;;;;;;3.65;76.58;101219.48;1892061;76;21055;-56
2023/02/05 09:44:21;;;;;;;10.98;5.10;;;;;;;3.64;76.62;101222.09;1892110;75;21015;-57
2023/02/05 09:47:20;;;;;;;11.10;4.70;;;;;;;3.59;76.66;101223.84;1891677;75;21509;-56
2023/02/05 09:49:52;;;;;;;5.75;3.25;;;;;;;3.53;76.68;101221.25;1841735;78;21496;-56
2023/02/05 09:52:25;;;;;;;18.90;5.87;;;;;;;3.47;76.67;101230.80;1841591;77;21121;-56
2023/02/05 09:54:56;;;;;;;11.20;6.22;;;;;;;3.37;76.65;101233.42;1828038;78;21129;-56
2023/02/05 09:57:34;;;;;;;49.15;11.20;;;;;;;3.30;76.75;101229.95;1832432;78;21047;-56
2023/02/05 10:00:04;;;;;;;26.42;11.48;;;;;;;3.26;76.84;101233.43;1832433;78;21032;-56
2023/02/05 10:02:46;;;;;;;18.90;7.60;;;;;;;3.26;76.87;101225.21;1832349;78;21087;-56
2023/02/05 10:05:15;;;;;;;15.85;6.67;;;;;;;3.26;76.95;101230.83;1832307;78;21040;-56
2023/02/05 10:08:06;;;;;;;10.98;4.35;;;;;;;3.20;76.88;101219.14;1832500;78;21044;-56
2023/02/05 10:10:38;;;;;;;24.07;8.80;;;;;;;3.17;76.92;101233.44;1832441;78;21600;-56
2023/02/05 10:13:29;;;;;;;21.15;9.55;;;;;;;3.06;77.02;101225.63;1831656;78;21567;-57
2023/02/05 10:16:22;;;;;;;23.83;9.13;;;;;;;3.04;77.18;101219.56;1832435;78;21114;-57
2023/02/05 10:19:10;;;;;;;23.87;9.95;;;;;;;3.04;77.24;101223.06;1838492;77;21467;-58
2023/02/05 10:21:47;;;;;;;26.42;10.72;;;;;;;3.04;77.22;101212.66;1833465;77;21142;-58
2023/02/05 10:24:44;;;;;;;30.95;12.15;;;;;;;3.09;77.13;101214.79;1856823;76;21048;-59
2023/02/05 10:27:25;;;;;;;35.90;13.20;;;;;;;3.19;77.11;101212.18;1848896;77;21482;-58
2023/02/05 10:30:03;;;;;;;22.30;10.25;;;;;;;3.29;77.02;101208.72;1860283;77;21115;-58
2023/02/05 10:32:59;;;;;;;38.00;12.10;;;;;;;3.31;76.88;101206.97;1858362;77;21118;-59
2023/02/05 10:35:43;;;;;;;25.62;8.85;;;;;;;3.33;76.81;101201.33;1860402;77;21117;-58
2023/02/05 10:38:25;;;;;;;17.48;9.48;;;;;;;3.34;76.81;101204.38;1864135;76;21522;-58
2023/02/05 10:40:57;;;;;;;26.40;9.98;;;;;;;3.32;76.86;101206.12;1872668;77;21032;-58
2023/02/05 10:43:32;;;;;;;23.60;9.88;;;;;;;3.35;77.03;101200.03;1872600;77;21584;-59
2023/02/05 10:46:02;;;;;;;19.85;8.05;;;;;;;3.36;76.99;101196.13;1872185;76;21103;-59
2023/02/05 10:48:53;;;;;;;38.65;15.98;;;;;;;3.35;76.98;101197.42;1872460;77;21490;-59
2023/02/05 10:51:30;;;;;;;32.85;13.95;;;;;;;3.35;77.00;101200.88;1872221;77;21538;-60
2023/02/05 10:54:01;;;;;;;31.80;13.18;;;;;;;3.37;77.05;101208.25;1872532;77;21067;-59
2023/02/05 10:56:29;;;;;;;28.45;11.45;;;;;;;3.37;77.13;101210.86;1872570;77;21047;-60
2023/02/05 10:59:01;;;;;;;30.45;11.03;;;;;;;3.41;77.15;101215.63;1872469;77;21051;-60
2023/02/05 11:01:37;;;;;;;29.75;11.85;;;;;;;3.41;77.17;101210.00;1872507;77;21138;-60
2023/02/05 11:04:08;;;;;;;30.55;12.35;;;;;;;3.45;77.15;101206.52;1872644;77;21125;-59
2023/02/05 11:06:43;;;;;;;15.05;7.40;;;;;;;3.54;77.14;101211.25;1872640;76;21486;-60
2023/02/05 11:09:27;;;;;;;18.10;6.78;;;;;;;3.57;76.98;101204.75;1872706;77;21645;-60
2023/02/05 11:11:58;;;;;;;15.83;7.60;;;;;;;3.54;76.87;101208.66;1846981;77;21118;-59
2023/02/05 11:14:33;;;;;;;17.80;7.40;;;;;;;3.56;76.94;101209.52;1872726;77;21092;-59
2023/02/05 11:17:26;;;;;;;21.05;7.83;;;;;;;3.58;76.92;101202.14;1872721;76;21075;-59
2023/02/05 11:20:07;;;;;;;17.50;7.35;;;;;;;3.62;76.85;101203.86;1868260;77;21110;-58
2023/02/05 11:22:39;;;;;;;18.65;8.60;;;;;;;3.60;76.66;101204.75;1872655;76;21052;-59
2023/02/05 11:25:21;;;;;;;26.07;8.93;;;;;;;3.61;76.73;101214.28;1872749;77;21024;-59
2023/02/05 11:27:55;;;;;;;21.90;7.47;;;;;;;3.70;76.83;101206.88;1872633;77;21052;-59
2023/02/05 11:30:35;;;;;;;20.25;7.37;;;;;;;3.85;76.82;101200.30;1871745;77;21071;-60
2023/02/05 11:33:25;;;;;;;20.25;8.10;;;;;;;3.92;76.65;101206.37;1871187;77;21060;-59
2023/02/05 11:36:08;;;;;;;22.02;9.25;;;;;;;3.97;76.50;101199.41;1835164;78;21390;-59
2023/02/05 11:38:45;;;;;;;29.00;11.30;;;;;;;3.99;76.40;101192.00;1838956;78;21220;-60
2023/02/05 11:41:29;;;;;;;21.40;9.20;;;;;;;4.04;76.40;101184.17;1829641;78;21705;-58
2023/02/05 11:44:03;;;;;;;35.85;12.47;;;;;;;4.09;76.33;101188.91;1829654;78;21133;-58
2023/02/05 11:46:35;;;;;;;31.48;13.03;;;;;;;4.08;76.33;101186.30;1829558;78;21091;-59
2023/02/05 11:49:04;;;;;;;22.48;9.55;;;;;;;4.03;76.37;101185.03;1828520;78;21055;-59
2023/02/05 11:51:36;;;;;;;15.23;6.22;;;;;;;4.02;76.46;101188.09;1837800;77;21490;-60